Friday, October 20, 2017, 9:12 PM EDT
Back to Local

KHFD, Hartford-brainard Airport

Location: Hartford, CT, United States Lat: 41.733
Local Time: 9:12 PM EDT ( 1:12 GMT) Lon: -72.65
Time Zone: US/Eastern Elev: 19 ft

Show me the last for .
Show Decoded

2017-10-20 20:53 METAR KHFD 210053Z 00000KT 10SM CLR 14/05 A3013 RMK AO2 SLP202 T01440050 =
2017-10-20 19:53 METAR KHFD 202353Z 19003KT 10SM CLR 14/07 A3012 RMK AO2 SLP201 T01390067 10222
                 20139 53019 =
2017-10-20 18:53 METAR KHFD 202253Z 29005KT 10SM CLR 19/04 A3010 RMK AO2 SLP194 T01890044 =
2017-10-20 17:53 METAR KHFD 202153Z 31007KT 10SM CLR 20/04 A3008 RMK AO2 SLP187 T02000039 =
2017-10-20 16:53 METAR KHFD 202053Z 30009KT 10SM CLR 21/03 A3007 RMK AO2 SLP182 T02110033 53006 =
2017-10-20 15:53 METAR KHFD 201953Z 32012G19KT 10SM CLR 22/03 A3006 RMK AO2 SLP180 T02170028 =
2017-10-20 14:53 METAR KHFD 201853Z 29009KT 10SM CLR 22/03 A3005 RMK AO2 SLP176 T02220028 =
2017-10-20 13:53 METAR KHFD 201753Z 31012G19KT 10SM CLR 22/03 A3005 RMK AO2 SLP176 T02170033
                 10217 20139 58020 =
2017-10-20 12:53 METAR KHFD 201653Z 33012G15KT 10SM CLR 21/03 A3008 RMK AO2 SLP185 T02110033 =
2017-10-20 11:53 METAR KHFD 201553Z 29010KT 10SM CLR 19/03 A3010 RMK AO2 SLP191 T01940028 =
2017-10-20 10:53 METAR KHFD 201453Z 29007G16KT 10SM CLR 18/03 A3011 RMK AO2 SLP196 T01830033
                 50004 =
2017-10-20 09:53 METAR KHFD 201353Z 28012G18KT 10SM CLR 17/03 A3012 RMK AO2 SLP200 T01720033 =
2017-10-20 08:53 METAR KHFD 201253Z 30005KT 10SM CLR 16/06 A3011 RMK AO2 SLP197 T01560056 =
2017-10-20 07:53 METAR KHFD 201153Z 29008KT 10SM CLR 14/07 A3010 RMK AO2 SLP192 T01390067 10139
                 20083 53015 =
2017-10-20 06:53 METAR KHFD 201053Z VRB03KT 10SM CLR 09/08 A3007 RMK AO2 SLP184 T00890078 =
2017-10-20 05:53 METAR KHFD 200953Z 00000KT 10SM CLR 09/08 A3007 RMK AO2 SLP182 T00890078 =
2017-10-20 04:53 METAR KHFD 200853Z AUTO 00000KT 10SM CLR 09/09 A3005 RMK AO2 SLP177 T00940089
                 53006 =
2017-10-20 03:53 METAR KHFD 200753Z AUTO 00000KT 10SM CLR 12/09 A3004 RMK AO2 SLP171 T01170094 =
2017-10-20 02:53 METAR KHFD 200653Z AUTO 16003KT 10SM CLR 13/10 A3003 RMK AO2 SLP169 T01280100 =
2017-10-20 01:53 METAR KHFD 200553Z AUTO 18004KT 10SM CLR 12/11 A3004 RMK AO2 SLP171 T01220106
                 10161 20122 53001 =
2017-10-20 00:53 METAR KHFD 200453Z AUTO 20005KT 10SM CLR 14/10 A3003 RMK AO2 SLP170 T01440100
                 402280067 =
2017-10-19 23:53 METAR KHFD 200353Z 17006KT 10SM CLR 14/11 A3003 RMK AO2 SLP169 T01390111 =
2017-10-19 22:53 METAR KHFD 200253Z 18008KT 10SM CLR 15/12 A3003 RMK AO2 SLP169 T01500117 58003 =
2017-10-19 21:53 METAR KHFD 200153Z 18009KT 10SM CLR 15/12 A3004 RMK AO2 SLP173 T01500117 =

Support USWX by starting your Amazon purchase here.